createdAt,value
2017-06-28T00:02:20.958Z,17.90
2017-06-28T00:04:50.413Z,17.80
2017-06-28T00:07:19.963Z,17.79
2017-06-28T00:09:49.409Z,17.78
2017-06-28T00:12:18.666Z,17.76
2017-06-28T00:14:48.177Z,17.70
2017-06-28T00:17:17.618Z,17.59
2017-06-28T00:19:47.081Z,17.52
2017-06-28T00:22:16.546Z,17.50
2017-06-28T00:24:45.985Z,17.48
2017-06-28T00:27:15.790Z,17.44
2017-06-28T00:29:45.234Z,17.42
2017-06-28T00:32:14.747Z,17.37
2017-06-28T00:34:44.205Z,17.31
2017-06-28T00:37:13.657Z,17.28
2017-06-28T00:39:43.125Z,17.20
2017-06-28T00:42:12.584Z,17.17
2017-06-28T00:44:42.072Z,17.13
2017-06-28T00:47:11.338Z,17.16
2017-06-28T00:49:40.805Z,17.09
2017-06-28T00:52:10.241Z,17.09
2017-06-28T00:54:39.691Z,17.06
2017-06-28T00:57:09.148Z,17.03
2017-06-28T00:59:38.933Z,17.04
2017-06-28T01:02:08.396Z,17.00
2017-06-28T01:04:37.844Z,16.99
2017-06-28T01:07:07.585Z,16.95
2017-06-28T01:09:37.061Z,16.95
2017-06-28T01:12:06.512Z,16.90
2017-06-28T01:14:35.965Z,16.89
2017-06-28T01:17:05.435Z,16.91
2017-06-28T01:19:34.976Z,16.86
2017-06-28T01:22:04.697Z,16.83
2017-06-28T01:24:34.258Z,16.83
2017-06-28T01:27:03.989Z,16.80
2017-06-28T01:29:33.723Z,16.77
2017-06-28T01:32:03.196Z,16.74
2017-06-28T01:34:32.724Z,16.70
2017-06-28T01:37:02.448Z,16.72
2017-06-28T01:50:47.683Z,16.67
2017-06-28T01:53:17.404Z,16.65
2017-06-28T01:55:47.157Z,16.65
2017-06-28T01:58:16.902Z,16.66
2017-06-28T02:00:46.769Z,16.59
2017-06-28T02:03:16.516Z,16.56
2017-06-28T02:16:34.581Z,16.40
2017-06-28T02:19:04.318Z,16.34
2017-06-28T02:21:34.064Z,16.29
2017-06-28T02:24:03.810Z,16.28
2017-06-28T02:26:33.557Z,16.26
2017-06-28T02:29:03.294Z,16.30
2017-06-28T02:31:33.024Z,16.25
2017-06-28T02:34:02.761Z,16.30
2017-06-28T02:36:32.520Z,16.33
2017-06-28T02:39:02.261Z,16.41
2017-06-28T02:41:32.002Z,16.32
2017-06-28T02:44:01.737Z,16.30
2017-06-28T02:46:31.449Z,16.27
2017-06-28T02:49:01.226Z,16.27
2017-06-28T02:51:30.965Z,16.31
2017-06-28T02:54:00.706Z,16.24
2017-06-28T02:56:30.153Z,16.18
2017-06-28T02:58:59.892Z,16.15
2017-06-28T03:01:29.621Z,16.12
2017-06-28T03:03:59.377Z,16.07
2017-06-28T03:06:29.108Z,16.05
2017-06-28T03:08:58.660Z,16.04
2017-06-28T03:11:28.401Z,16.04
2017-06-28T03:13:58.137Z,16.02
2017-06-28T03:16:27.908Z,16.03
2017-06-28T03:18:57.630Z,16.05
2017-06-28T03:21:27.364Z,16.06
2017-06-28T03:23:57.104Z,16.14
2017-06-28T03:26:26.839Z,16.22
2017-06-28T03:28:56.575Z,16.23
2017-06-28T03:31:26.328Z,16.22
2017-06-28T03:33:56.065Z,16.22
2017-06-28T03:36:25.807Z,16.32
2017-06-28T03:38:55.553Z,16.33
2017-06-28T03:41:25.291Z,16.37
2017-06-28T03:43:55.046Z,16.41
2017-06-28T03:46:24.788Z,16.56
2017-06-28T03:48:54.505Z,16.78
2017-06-28T03:51:24.274Z,16.98
2017-06-28T03:53:54.014Z,17.13
2017-06-28T03:56:23.749Z,17.28
2017-06-28T03:58:53.497Z,17.47
2017-06-28T04:01:23.242Z,17.65
2017-06-28T04:03:52.681Z,17.80
2017-06-28T04:06:22.187Z,17.96
2017-06-28T04:08:51.641Z,18.07
2017-06-28T04:11:21.104Z,18.18
2017-06-28T04:13:50.543Z,18.32
2017-06-28T04:16:20.036Z,18.41
2017-06-28T04:18:50.249Z,18.50
2017-06-28T04:21:19.688Z,18.62
2017-06-28T04:23:49.129Z,18.71
2017-06-28T04:26:18.673Z,18.77
2017-06-28T04:28:48.112Z,18.82
2017-06-28T04:31:17.574Z,18.87
2017-06-28T04:33:47.025Z,18.88
2017-06-28T04:36:16.473Z,18.97
2017-06-28T04:38:45.944Z,19.06
2017-06-28T04:41:15.418Z,19.11
2017-06-28T04:43:44.908Z,19.18
2017-06-28T04:46:14.408Z,19.20
2017-06-28T04:48:43.868Z,19.27
2017-06-28T04:51:13.330Z,19.27
2017-06-28T04:53:42.782Z,19.41
2017-06-28T04:56:12.235Z,19.55
2017-06-28T04:58:41.682Z,19.71
2017-06-28T05:01:11.233Z,19.89
2017-06-28T05:03:40.672Z,20.10
2017-06-28T05:06:10.131Z,20.11
2017-06-28T05:08:39.569Z,20.21
2017-06-28T05:11:09.024Z,20.32
2017-06-28T05:13:38.473Z,20.41
2017-06-28T05:16:07.938Z,20.49
2017-06-28T05:18:37.402Z,20.70
2017-06-28T05:21:06.878Z,20.87
2017-06-28T05:23:36.325Z,20.92
2017-06-28T05:26:05.933Z,21.10
2017-06-28T05:28:35.393Z,21.36
2017-06-28T05:31:04.828Z,21.32
2017-06-28T05:33:34.299Z,21.37
2017-06-28T05:36:04.526Z,21.51
2017-06-28T05:38:33.997Z,21.66
2017-06-28T05:41:03.441Z,21.89
2017-06-28T05:43:32.929Z,22.17
2017-06-28T05:46:02.410Z,22.49
2017-06-28T05:48:31.887Z,22.67
2017-06-28T05:51:01.371Z,22.59
2017-06-28T05:53:30.833Z,22.53
2017-06-28T05:56:00.288Z,22.58
2017-06-28T05:58:29.754Z,22.64
2017-06-28T06:00:59.226Z,22.73
2017-06-28T06:03:28.696Z,22.79
2017-06-28T06:05:58.178Z,22.87
2017-06-28T06:08:27.637Z,22.74
2017-06-28T06:10:57.098Z,22.83
2017-06-28T06:13:26.547Z,22.97
2017-06-28T06:15:56.078Z,23.09
2017-06-28T06:18:25.521Z,23.28
2017-06-28T06:20:54.986Z,23.36
2017-06-28T06:23:24.457Z,23.45
2017-06-28T06:25:53.915Z,23.43
2017-06-28T06:28:23.379Z,23.36
2017-06-28T06:30:52.855Z,23.37
2017-06-28T06:33:22.305Z,23.51
2017-06-28T06:35:51.760Z,23.33
2017-06-28T06:38:21.224Z,23.34
2017-06-28T06:40:50.710Z,23.51
2017-06-28T06:43:20.189Z,23.51
2017-06-28T06:45:49.649Z,23.56
2017-06-28T06:48:19.121Z,23.59
2017-06-28T06:50:48.594Z,23.78
2017-06-28T06:53:18.083Z,23.85
2017-06-28T06:55:47.536Z,24.00
2017-06-28T06:58:17.021Z,24.15
2017-06-28T07:00:46.489Z,24.41
2017-06-28T07:03:15.941Z,24.65
2017-06-28T07:05:45.397Z,24.71
2017-06-28T07:08:14.882Z,25.03
2017-06-28T07:10:44.330Z,25.31
2017-06-28T07:13:13.800Z,25.92
2017-06-28T07:15:43.269Z,26.08
2017-06-28T07:18:12.761Z,25.91
2017-06-28T07:20:42.218Z,25.83
2017-06-28T07:23:11.687Z,25.72
2017-06-28T07:25:41.141Z,26.13
2017-06-28T07:28:10.584Z,26.42
2017-06-28T07:30:40.048Z,26.63
2017-06-28T07:33:09.503Z,26.40
2017-06-28T07:35:38.978Z,26.23
2017-06-28T07:38:09.182Z,26.38
2017-06-28T07:40:38.631Z,26.34
2017-06-28T07:43:08.096Z,26.62
2017-06-28T07:45:37.540Z,27.04
2017-06-28T07:48:07.035Z,27.20
2017-06-28T07:50:36.485Z,27.15
2017-06-28T07:53:06.029Z,27.05
2017-06-28T07:55:35.464Z,27.04
2017-06-28T07:58:04.922Z,27.26
2017-06-28T08:00:34.367Z,27.32
2017-06-28T08:03:03.818Z,27.47
2017-06-28T08:05:33.290Z,27.61
2017-06-28T08:08:02.745Z,27.66
2017-06-28T08:10:32.209Z,27.67
2017-06-28T08:13:01.780Z,27.86
2017-06-28T08:15:31.235Z,27.66
2017-06-28T08:18:00.681Z,28.14
2017-06-28T08:20:30.124Z,28.60
2017-06-28T08:22:59.577Z,28.87
2017-06-28T08:25:29.029Z,29.07
2017-06-28T08:27:58.499Z,29.44
2017-06-28T08:30:27.955Z,29.59
2017-06-28T08:32:57.382Z,30.13
2017-06-28T08:35:26.844Z,30.15
2017-06-28T08:37:56.310Z,30.03
2017-06-28T08:40:25.757Z,29.95
2017-06-28T08:42:55.212Z,29.84
2017-06-28T08:45:24.693Z,29.74
2017-06-28T08:47:54.180Z,30.14
2017-06-28T08:50:23.673Z,30.23
2017-06-28T08:52:53.125Z,30.26
2017-06-28T08:55:23.442Z,30.32
2017-06-28T08:57:52.719Z,30.39
2017-06-28T09:00:22.189Z,30.34
2017-06-28T09:02:51.633Z,30.50
2017-06-28T09:05:21.127Z,30.49
2017-06-28T09:07:50.577Z,30.68
2017-06-28T09:10:20.075Z,30.72
2017-06-28T09:12:49.521Z,30.58
2017-06-28T09:15:19.059Z,30.62
2017-06-28T09:17:48.515Z,30.91
2017-06-28T09:20:18.029Z,30.81
2017-06-28T09:22:47.474Z,30.69
2017-06-28T09:25:16.963Z,30.63
2017-06-28T09:27:46.433Z,30.14
2017-06-28T09:30:15.909Z,30.10
2017-06-28T09:32:45.354Z,30.13
2017-06-28T09:35:14.852Z,30.26
2017-06-28T09:37:44.305Z,30.28
2017-06-28T09:40:13.792Z,30.01
2017-06-28T09:42:43.220Z,29.87
2017-06-28T09:45:13.559Z,29.29
2017-06-28T09:47:43.009Z,29.39
2017-06-28T09:50:12.476Z,29.40
2017-06-28T09:52:41.916Z,29.45
2017-06-28T09:55:11.423Z,29.45
2017-06-28T09:57:40.897Z,29.45
2017-06-28T10:00:10.380Z,29.52
2017-06-28T10:02:39.873Z,29.98
2017-06-28T10:05:09.392Z,29.96
2017-06-28T10:07:38.853Z,30.33
2017-06-28T10:10:08.355Z,30.43
2017-06-28T10:12:37.787Z,29.84
2017-06-28T10:15:07.288Z,29.81
2017-06-28T10:17:36.733Z,29.68
2017-06-28T10:20:06.239Z,30.05
2017-06-28T10:22:35.706Z,30.16
2017-06-28T10:25:05.185Z,30.65
2017-06-28T10:27:34.716Z,30.27
2017-06-28T10:30:04.220Z,29.29
2017-06-28T10:32:33.692Z,29.66
2017-06-28T10:35:03.260Z,29.68
2017-06-28T10:37:32.806Z,29.86
2017-06-28T10:40:02.394Z,29.76
2017-06-28T10:42:31.833Z,29.61
2017-06-28T10:45:01.336Z,29.46
2017-06-28T10:47:30.782Z,29.90
2017-06-28T10:50:00.232Z,30.14
2017-06-28T10:52:29.841Z,30.10
2017-06-28T10:54:59.314Z,30.66
2017-06-28T10:57:28.761Z,30.36
2017-06-28T10:59:58.214Z,30.43
2017-06-28T11:02:27.695Z,30.45
2017-06-28T11:04:57.150Z,30.30
2017-06-28T11:07:26.653Z,29.90
2017-06-28T11:09:56.119Z,29.73
2017-06-28T11:12:25.576Z,29.83
2017-06-28T11:14:55.043Z,30.09
2017-06-28T11:17:24.489Z,30.21
2017-06-28T11:19:53.946Z,29.94
2017-06-28T11:22:23.393Z,30.08
2017-06-28T11:24:52.856Z,30.41
2017-06-28T11:27:22.288Z,30.11
2017-06-28T11:29:51.762Z,30.38
2017-06-28T11:32:21.189Z,30.66
2017-06-28T11:34:50.662Z,30.58
2017-06-28T11:37:20.132Z,30.75
2017-06-28T11:39:49.593Z,30.40
2017-06-28T11:42:19.121Z,30.21
2017-06-28T11:44:48.653Z,30.30
2017-06-28T11:47:18.142Z,30.16
2017-06-28T11:49:47.612Z,30.31
2017-06-28T11:52:17.064Z,30.19
2017-06-28T11:54:46.584Z,30.49
2017-06-28T11:57:16.026Z,30.35
2017-06-28T11:59:45.494Z,30.10
2017-06-28T12:02:15.045Z,29.77
2017-06-28T12:04:44.509Z,29.83
2017-06-28T12:07:13.977Z,30.23
2017-06-28T12:09:43.433Z,30.27
2017-06-28T12:12:12.873Z,30.27
2017-06-28T12:14:42.514Z,30.46
2017-06-28T12:17:11.952Z,30.31
2017-06-28T12:19:41.212Z,30.48
2017-06-28T12:22:10.685Z,30.41
2017-06-28T12:24:40.154Z,30.74
2017-06-28T12:27:09.629Z,31.66
2017-06-28T12:29:39.046Z,31.80
2017-06-28T12:32:08.510Z,32.73
2017-06-28T12:34:37.966Z,32.94
2017-06-28T12:37:07.462Z,33.57
2017-06-28T12:39:36.897Z,33.01
2017-06-28T12:42:06.343Z,33.45
2017-06-28T12:44:35.786Z,33.55
2017-06-28T12:47:05.222Z,34.42
2017-06-28T12:49:34.674Z,34.47
2017-06-28T12:52:04.124Z,35.03
2017-06-28T12:54:33.562Z,34.38
2017-06-28T12:57:03.010Z,34.76
2017-06-28T12:59:32.453Z,34.54
2017-06-28T13:02:01.918Z,35.16
2017-06-28T13:04:31.391Z,34.58
2017-06-28T13:07:00.840Z,34.13
2017-06-28T13:09:30.290Z,34.17
2017-06-28T13:11:59.740Z,33.80
2017-06-28T13:14:29.196Z,33.98
2017-06-28T13:16:58.673Z,33.82
2017-06-28T13:19:28.178Z,34.65
2017-06-28T13:21:57.628Z,32.21
2017-06-28T13:24:27.077Z,31.38
2017-06-28T13:26:56.552Z,33.26
2017-06-28T13:29:25.818Z,33.48
2017-06-28T13:31:55.266Z,33.55
2017-06-28T13:34:24.791Z,34.03
2017-06-28T13:36:54.252Z,33.26
2017-06-28T13:39:23.713Z,34.03
2017-06-28T13:41:53.170Z,34.32
2017-06-28T13:44:23.461Z,34.30
2017-06-28T13:46:52.909Z,35.08
2017-06-28T13:49:22.347Z,35.77
2017-06-28T13:51:51.824Z,36.91
2017-06-28T13:54:21.276Z,36.81
2017-06-28T13:56:50.733Z,36.36
2017-06-28T13:59:20.189Z,35.38
2017-06-28T14:01:49.630Z,35.56
2017-06-28T14:04:19.079Z,35.44
2017-06-28T14:06:48.541Z,34.60
2017-06-28T14:09:17.984Z,35.88
2017-06-28T14:11:47.447Z,36.48
2017-06-28T14:14:16.893Z,35.46
2017-06-28T14:16:46.348Z,34.80
2017-06-28T14:19:15.781Z,33.44
2017-06-28T14:21:45.243Z,34.34
2017-06-28T14:24:14.756Z,34.16
2017-06-28T14:26:44.280Z,33.65
2017-06-28T14:29:13.738Z,33.50
2017-06-28T14:31:43.214Z,32.84
2017-06-28T14:34:12.677Z,33.40
2017-06-28T14:36:42.145Z,33.28
2017-06-28T14:39:11.595Z,33.78
2017-06-28T14:41:41.043Z,34.25
2017-06-28T14:44:10.493Z,33.77
2017-06-28T14:46:39.939Z,33.55
2017-06-28T14:49:09.378Z,33.14
2017-06-28T14:51:38.842Z,32.84
2017-06-28T14:54:08.289Z,33.53
2017-06-28T14:56:37.784Z,34.29
2017-06-28T14:59:07.254Z,34.88
2017-06-28T15:01:37.007Z,34.19
2017-06-28T15:04:06.478Z,32.92
2017-06-28T15:06:35.951Z,33.10
2017-06-28T15:09:04.813Z,33.25
2017-06-28T15:11:34.942Z,32.70
2017-06-28T15:14:06.414Z,33.19
2017-06-28T15:16:35.953Z,33.25
2017-06-28T15:19:05.653Z,33.26
2017-06-28T15:21:35.497Z,32.33
2017-06-28T15:24:05.153Z,32.08
2017-06-28T15:26:35.048Z,32.52
2017-06-28T15:29:04.574Z,32.08
2017-06-28T15:31:34.008Z,31.62
2017-06-28T15:34:03.482Z,31.43
2017-06-28T15:36:32.959Z,31.43
2017-06-28T15:39:02.694Z,31.30
2017-06-28T15:41:31.976Z,32.06
2017-06-28T15:44:01.432Z,32.35
2017-06-28T15:46:30.857Z,32.71
2017-06-28T15:49:00.334Z,33.00
2017-06-28T15:51:29.797Z,33.01
2017-06-28T15:54:10.510Z,32.58
2017-06-28T15:56:47.291Z,32.59
2017-06-28T15:59:16.737Z,32.11
2017-06-28T16:01:46.197Z,32.18
2017-06-28T16:04:15.666Z,31.80
2017-06-28T16:06:45.109Z,31.88
2017-06-28T16:09:14.566Z,31.92
2017-06-28T16:11:44.002Z,31.73
2017-06-28T16:14:13.488Z,32.07
2017-06-28T16:16:44.048Z,31.99
2017-06-28T16:19:13.485Z,31.67
2017-06-28T16:21:42.932Z,31.63
2017-06-28T16:24:12.411Z,31.48
2017-06-28T16:26:41.876Z,31.18
2017-06-28T16:29:11.273Z,30.74
2017-06-28T16:31:40.733Z,30.60
2017-06-28T16:34:10.197Z,30.79
2017-06-28T16:36:39.665Z,30.42
2017-06-28T16:39:09.138Z,30.47
2017-06-28T16:41:38.667Z,30.08
2017-06-28T16:44:08.094Z,29.98
2017-06-28T16:46:37.550Z,29.75
2017-06-28T16:49:07.035Z,29.29
2017-06-28T16:51:36.554Z,29.07
2017-06-28T16:54:05.992Z,28.80
2017-06-28T16:56:35.442Z,28.68
2017-06-28T16:59:04.718Z,28.60
2017-06-28T17:01:34.198Z,28.55
2017-06-28T17:04:03.650Z,28.46
2017-06-28T17:06:33.109Z,28.47
2017-06-28T17:09:02.397Z,28.28
2017-06-28T17:11:31.841Z,28.23
2017-06-28T17:14:01.299Z,28.17
2017-06-28T17:16:30.820Z,28.12
2017-06-28T17:19:00.280Z,27.96
2017-06-28T17:21:29.730Z,27.97
2017-06-28T17:23:59.194Z,27.87
2017-06-28T17:26:28.646Z,27.78
2017-06-28T17:28:58.101Z,27.71
2017-06-28T17:31:27.646Z,27.65
2017-06-28T17:33:57.086Z,27.59
2017-06-28T17:36:26.562Z,27.61
2017-06-28T17:38:56.025Z,27.51
2017-06-28T17:41:25.513Z,27.43
2017-06-28T17:43:54.813Z,27.30
2017-06-28T17:46:24.285Z,27.25
2017-06-28T17:48:53.766Z,27.19
2017-06-28T17:51:23.218Z,27.15
2017-06-28T17:53:52.670Z,27.06
2017-06-28T17:56:22.146Z,26.98
2017-06-28T17:58:51.649Z,26.88
2017-06-28T18:01:21.101Z,26.82
2017-06-28T18:03:50.357Z,26.70
2017-06-28T18:06:19.813Z,26.55
2017-06-28T18:08:49.062Z,26.53
2017-06-28T18:11:18.533Z,26.44
2017-06-28T18:13:47.989Z,26.35
2017-06-28T18:16:17.443Z,26.27
2017-06-28T18:18:46.817Z,26.21
2017-06-28T18:21:16.283Z,26.16
2017-06-28T18:23:45.741Z,25.99
2017-06-28T18:26:15.225Z,25.90
2017-06-28T18:28:44.718Z,25.74
2017-06-28T18:31:14.161Z,25.56
2017-06-28T18:33:43.448Z,25.42
2017-06-28T18:36:12.688Z,25.37
2017-06-28T18:38:42.150Z,25.37
2017-06-28T18:41:11.615Z,25.28
2017-06-28T18:43:41.083Z,25.29
2017-06-28T18:46:10.541Z,25.28
2017-06-28T18:48:40.005Z,25.26
2017-06-28T18:51:09.433Z,25.28
2017-06-28T18:53:38.887Z,25.35
2017-06-28T18:56:08.354Z,25.33
2017-06-28T18:58:37.817Z,25.27
2017-06-28T19:01:07.288Z,25.32
2017-06-28T19:03:36.727Z,25.26
2017-06-28T19:06:06.194Z,25.25
2017-06-28T19:08:35.626Z,25.18
2017-06-28T19:11:05.096Z,25.19
2017-06-28T19:13:34.559Z,25.12
2017-06-28T19:16:04.013Z,25.04
2017-06-28T19:18:33.497Z,24.97
2017-06-28T19:21:02.930Z,24.90
2017-06-28T19:23:32.395Z,24.86
2017-06-28T19:26:01.832Z,24.82
2017-06-28T19:28:31.309Z,24.69
2017-06-28T19:31:00.638Z,24.70
2017-06-28T19:33:30.094Z,24.56
2017-06-28T19:35:59.546Z,24.54
2017-06-28T19:38:29.054Z,24.51
2017-06-28T19:40:58.288Z,24.27
2017-06-28T19:43:27.853Z,24.04
2017-06-28T19:45:57.287Z,23.99
2017-06-28T19:48:27.242Z,23.89
2017-06-28T19:50:57.094Z,23.82
2017-06-28T19:53:27.414Z,23.77
2017-06-28T19:55:57.744Z,23.66
2017-06-28T19:58:27.453Z,23.39
2017-06-28T20:00:57.219Z,23.45
2017-06-28T20:03:26.785Z,23.39
2017-06-28T20:05:56.428Z,23.26
2017-06-28T20:08:26.340Z,23.07
2017-06-28T20:10:56.487Z,23.03
2017-06-28T20:13:26.179Z,22.90
2017-06-28T20:15:55.857Z,22.91
2017-06-28T20:18:25.492Z,22.85
2017-06-28T20:20:55.350Z,22.67
2017-06-28T20:23:25.030Z,22.54
2017-06-28T20:25:55.506Z,22.54
2017-06-28T20:28:25.253Z,22.42
2017-06-28T20:30:55.093Z,22.33
2017-06-28T20:33:24.666Z,22.22
2017-06-28T20:35:55.298Z,22.11
2017-06-28T20:38:25.403Z,22.08
2017-06-28T20:40:54.987Z,22.00
2017-06-28T20:43:24.893Z,21.85
2017-06-28T20:45:54.825Z,21.77
2017-06-28T20:48:24.378Z,21.69
2017-06-28T20:50:53.741Z,21.66
2017-06-28T20:53:23.332Z,21.51
2017-06-28T20:55:53.338Z,21.46
2017-06-28T20:58:23.233Z,21.33
2017-06-28T21:00:53.728Z,21.30
2017-06-28T21:03:23.656Z,21.23
2017-06-28T21:05:53.385Z,21.19
2017-06-28T21:08:23.107Z,21.19
2017-06-28T21:10:52.820Z,21.07
2017-06-28T21:13:22.913Z,20.99
2017-06-28T21:15:52.597Z,20.86
2017-06-28T21:18:22.590Z,20.78
2017-06-28T21:20:52.249Z,20.73
2017-06-28T21:23:22.250Z,20.61
2017-06-28T21:25:51.834Z,20.49
2017-06-28T21:28:21.732Z,20.40
2017-06-28T21:30:51.240Z,20.28
2017-06-28T21:33:20.939Z,20.19
2017-06-28T21:35:50.404Z,20.15
2017-06-28T21:38:19.972Z,20.18
2017-06-28T21:40:49.465Z,20.15
2017-06-28T21:43:18.908Z,20.19
2017-06-28T21:45:48.370Z,20.15
2017-06-28T21:48:17.854Z,20.11
2017-06-28T21:50:47.314Z,19.93
2017-06-28T21:53:16.758Z,19.88
2017-06-28T21:55:46.241Z,19.91
2017-06-28T21:58:15.818Z,19.96
2017-06-28T22:00:45.340Z,20.10
2017-06-28T22:03:14.789Z,20.06
2017-06-28T22:05:44.262Z,20.06
2017-06-28T22:08:13.721Z,19.98
2017-06-28T22:10:43.167Z,19.89
2017-06-28T22:13:12.625Z,19.79
2017-06-28T22:15:41.870Z,19.75
2017-06-28T22:18:10.723Z,19.74
2017-06-28T22:20:39.380Z,19.61
2017-06-28T22:23:08.704Z,19.57
2017-06-28T22:25:38.155Z,19.55
2017-06-28T22:28:07.886Z,19.60
2017-06-28T22:30:37.328Z,19.59
2017-06-28T22:33:06.600Z,19.52
2017-06-28T22:35:36.063Z,19.51
2017-06-28T22:38:05.513Z,19.59
2017-06-28T22:40:34.769Z,19.50
2017-06-28T22:43:04.229Z,19.60
2017-06-28T22:45:33.670Z,19.52
2017-06-28T22:48:03.113Z,19.48
2017-06-28T22:50:32.956Z,19.53
2017-06-28T22:53:02.386Z,19.52
2017-06-28T22:55:31.825Z,19.55
2017-06-28T22:58:01.329Z,19.58
2017-06-28T23:00:30.777Z,19.46
2017-06-28T23:03:00.242Z,19.35
2017-06-28T23:05:29.694Z,19.14
2017-06-28T23:07:59.165Z,18.91
2017-06-28T23:10:28.609Z,18.87
2017-06-28T23:12:57.869Z,18.92
2017-06-28T23:15:27.115Z,18.82
2017-06-28T23:17:56.617Z,18.84
2017-06-28T23:20:26.048Z,18.97
2017-06-28T23:22:55.505Z,18.93
2017-06-28T23:25:24.978Z,18.82
2017-06-28T23:27:54.441Z,18.72
2017-06-28T23:30:23.973Z,18.71
2017-06-28T23:32:53.234Z,18.70
2017-06-28T23:35:22.755Z,18.69
2017-06-28T23:37:52.207Z,18.66
2017-06-28T23:40:21.718Z,18.67
2017-06-28T23:42:51.181Z,18.76
2017-06-28T23:45:20.662Z,18.84
2017-06-28T23:47:50.122Z,18.86
2017-06-28T23:50:19.616Z,18.97
2017-06-28T23:52:49.068Z,19.02
2017-06-28T23:55:18.553Z,18.98
2017-06-28T23:57:48.002Z,19.04
